Pagrindinis puslapis
METAR-TAF:

METAR-TAF

Oro uostai :

Konakris, Gvinėja

platuma: 09-34N, ilguma: 013-37W, Aukštis: 26 m

Dabartinis oras

Ataskaita buvo paskelbta 2 valandos ir 38 minutes, ne 06:00 UTC
Ramus vėjas
Temperatūra 27°C
Drėgmė 84%
Slėgis 1010 hPa
Matomumas 10 km arba daugiau
Mažai debesys ne aukštis 1500 ft

METAR: GUCY 230600Z 00000KT 9999 FEW015 27/24 Q1010 NOSIG

Laikas: 08:38 (08:38 UTC)

Prognozė

Ataskaita buvo paskelbta 3 valandos ir 38 minutes, ne 05:00 UTC
Prognozė galioja nuo 23 metu 06 UTC su 24 metu 12 UTC
Vėjas 8 kt iš Šiaurės Vakarų
Matomumas: 5000 m
migla
Tapsmas
nuo 22 metu 06 UTC su 22 metu 10 UTC
Vėjas 2 kt nuo kintamojo kryptimis
Matomumas: 3000 m
Mažai debesys ne aukštis 1500 ft
rūkana
Laikinai
nuo 23 metu 14 UTC su 23 metu 18 UTC
Matomumas 10 km arba daugiau
Mažai debesys ne aukštis 1500 ft
Išsisklaidę debesys ne aukštis 11000 ft

TAF: GUCY 230500Z 2306/2412 32008KT 5000 HZ NSC BECMG 2206/2210 VRB02KT 3000 BR FEW015 TEMPO 2314/2318 9999 FEW015 SCT110

Orai ataskaitas ir orų prognozės (METAR, TAF).

turimą stotys yra geltonos ir raudonos taškus žemėlapyje.

Perkelti pele per norėdami pamatyti stoties vardą.

Tada spustelėkite, norėdami matyti oro stebėjimo ir prognozės.

Norėdami pakeisti žemėlapį: spustelėkite ant žalios mygtukų su juodo kryžiaus žemyn,; žalią mygtuką su brūkšneliu, jei norite nutolinti; arba žalių rodyklių gretimoms žemėlapius.


METAR-TAF: